createdAt,value
2023-08-11T00:00:22.901Z,61.79
2023-08-11T00:02:53.357Z,61.83
2023-08-11T00:05:20.724Z,61.67
2023-08-11T00:07:52.194Z,61.41
2023-08-11T00:10:20.904Z,61.57
2023-08-11T00:12:48.639Z,61.37
2023-08-11T00:15:15.290Z,61.37
2023-08-11T00:17:42.191Z,61.42
2023-08-11T00:20:10.007Z,61.21
2023-08-11T00:22:39.151Z,61.19
2023-08-11T00:25:06.877Z,61.20
2023-08-11T00:27:33.555Z,61.44
2023-08-11T00:30:00.344Z,61.92
2023-08-11T00:32:27.057Z,62.17
2023-08-11T00:34:53.753Z,61.96
2023-08-11T00:37:20.351Z,61.96
2023-08-11T00:39:47.094Z,61.95
2023-08-11T00:42:14.108Z,61.85
2023-08-11T00:44:40.955Z,62.06
2023-08-11T00:47:08.737Z,62.16
2023-08-11T00:49:36.054Z,62.52
2023-08-11T00:52:04.552Z,62.72
2023-08-11T00:54:31.578Z,62.99
2023-08-11T00:56:58.391Z,63.37
2023-08-11T00:59:26.662Z,63.88
2023-08-11T01:01:53.401Z,63.80
2023-08-11T01:04:21.856Z,63.96
2023-08-11T01:07:17.374Z,64.20
2023-08-11T01:09:54.723Z,64.39
2023-08-11T01:12:32.344Z,64.12
2023-08-11T01:15:08.203Z,63.63
2023-08-11T01:17:36.566Z,63.60
2023-08-11T01:20:09.701Z,63.37
2023-08-11T01:22:38.061Z,63.20
2023-08-11T01:25:06.998Z,63.11
2023-08-11T01:27:37.635Z,62.95
2023-08-11T01:30:07.321Z,62.83
2023-08-11T01:32:33.981Z,62.82
2023-08-11T01:35:00.808Z,62.93
2023-08-11T01:37:27.746Z,62.82
2023-08-11T01:39:54.524Z,62.85
2023-08-11T01:42:21.769Z,62.91
2023-08-11T01:44:49.516Z,62.86
2023-08-11T01:47:18.154Z,62.68
2023-08-11T01:49:45.683Z,62.69
2023-08-11T01:52:13.286Z,62.69
2023-08-11T01:54:43.684Z,62.75
2023-08-11T01:57:10.901Z,62.80
2023-08-11T01:59:37.519Z,62.94
2023-08-11T02:02:04.315Z,63.17
2023-08-11T02:04:30.975Z,63.19
2023-08-11T02:06:57.582Z,63.51
2023-08-11T02:09:24.192Z,63.73
2023-08-11T02:11:50.741Z,63.82
2023-08-11T02:14:17.387Z,63.76
2023-08-11T02:16:57.096Z,63.89
2023-08-11T02:19:23.671Z,64.03
2023-08-11T02:21:51.634Z,63.95
2023-08-11T02:24:18.263Z,63.74
2023-08-11T02:26:44.947Z,63.54
2023-08-11T02:29:11.576Z,63.42
2023-08-11T02:31:38.216Z,62.90
2023-08-11T02:34:04.894Z,62.66
2023-08-11T02:36:31.582Z,62.81
2023-08-11T02:38:58.241Z,62.88
2023-08-11T02:41:25.097Z,62.85
2023-08-11T02:43:51.728Z,62.66
2023-08-11T02:46:18.349Z,62.31
2023-08-11T02:48:44.972Z,62.06
2023-08-11T02:51:11.518Z,62.24
2023-08-11T02:53:38.114Z,62.40
2023-08-11T02:56:07.949Z,62.51
2023-08-11T02:58:34.832Z,62.41
2023-08-11T03:01:02.019Z,62.72
2023-08-11T03:03:29.964Z,61.73
2023-08-11T03:05:59.223Z,61.47
2023-08-11T03:08:26.226Z,61.36
2023-08-11T03:10:57.228Z,61.24
2023-08-11T03:13:30.269Z,60.90
2023-08-11T03:15:57.565Z,60.37
2023-08-11T03:18:27.671Z,60.46
2023-08-11T03:21:00.485Z,60.89
2023-08-11T03:23:33.324Z,61.99
2023-08-11T03:25:59.921Z,62.12
2023-08-11T03:28:28.272Z,62.38
2023-08-11T03:30:55.956Z,62.40
2023-08-11T03:33:22.612Z,62.29
2023-08-11T03:35:53.734Z,62.36
2023-08-11T03:38:20.429Z,62.16
2023-08-11T03:40:48.226Z,62.15
2023-08-11T03:43:14.955Z,62.30
2023-08-11T03:45:41.944Z,62.42
2023-08-11T03:48:11.777Z,62.16
2023-08-11T03:50:38.377Z,62.20
2023-08-11T03:53:04.979Z,62.66
2023-08-11T03:55:31.790Z,62.62
2023-08-11T03:57:58.483Z,62.33
2023-08-11T04:00:26.260Z,62.59
2023-08-11T04:03:04.828Z,62.57
2023-08-11T04:05:31.680Z,62.64
2023-08-11T04:07:58.341Z,62.62
2023-08-11T04:10:25.669Z,62.21
2023-08-11T04:12:52.567Z,62.31
2023-08-11T04:15:19.671Z,62.14
2023-08-11T04:17:46.283Z,62.11
2023-08-11T04:20:14.593Z,62.17
2023-08-11T04:22:42.282Z,62.14
2023-08-11T04:25:11.703Z,61.95
2023-08-11T04:27:41.664Z,61.86
2023-08-11T04:30:11.263Z,62.04
2023-08-11T04:32:38.990Z,62.24
2023-08-11T04:35:09.500Z,62.25
2023-08-11T04:37:37.757Z,61.92
2023-08-11T04:40:09.784Z,61.82
2023-08-11T04:42:36.478Z,61.57
2023-08-11T04:45:03.569Z,61.14
2023-08-11T04:47:31.260Z,61.30
2023-08-11T04:49:58.754Z,61.37
2023-08-11T04:52:25.408Z,60.89
2023-08-11T04:54:52.157Z,60.39
2023-08-11T04:57:18.783Z,60.51
2023-08-11T04:59:46.901Z,61.10
2023-08-11T05:02:14.323Z,60.68
2023-08-11T05:04:41.320Z,60.67
2023-08-11T05:07:08.378Z,61.37
2023-08-11T05:09:38.781Z,61.56
2023-08-11T05:12:06.160Z,61.76
2023-08-11T05:14:33.133Z,61.92
2023-08-11T05:17:02.216Z,62.36
2023-08-11T05:19:30.597Z,62.20
2023-08-11T05:21:57.213Z,61.60
2023-08-11T05:24:23.814Z,61.08
2023-08-11T05:26:50.441Z,60.48
2023-08-11T05:29:17.029Z,59.98
2023-08-11T05:31:44.021Z,60.39
2023-08-11T05:34:11.017Z,60.01
2023-08-11T05:36:38.160Z,59.68
2023-08-11T05:39:05.055Z,58.69
2023-08-11T05:41:31.826Z,59.41
2023-08-11T05:43:58.488Z,62.12
2023-08-11T05:46:25.220Z,65.13
2023-08-11T05:48:52.418Z,64.36
2023-08-11T05:51:19.181Z,63.28
2023-08-11T05:53:45.965Z,61.10
2023-08-11T05:56:12.580Z,60.58
2023-08-11T05:58:39.252Z,60.98
2023-08-11T06:01:05.979Z,59.62
2023-08-11T06:03:32.760Z,57.54
2023-08-11T06:06:02.056Z,59.06
2023-08-11T06:08:29.564Z,61.10
2023-08-11T06:10:56.720Z,63.07
2023-08-11T06:13:26.391Z,62.15
2023-08-11T06:15:53.140Z,59.86
2023-08-11T06:18:19.851Z,57.94
2023-08-11T06:20:48.517Z,59.54
2023-08-11T06:23:15.245Z,60.39
2023-08-11T06:25:43.057Z,63.71
2023-08-11T06:28:10.132Z,62.97
2023-08-11T06:30:36.854Z,59.81
2023-08-11T06:33:03.885Z,57.68
2023-08-11T06:35:31.424Z,57.99
2023-08-11T06:37:58.452Z,58.16
2023-08-11T06:40:25.181Z,60.02
2023-08-11T06:42:51.853Z,62.36
2023-08-11T06:45:19.688Z,60.05
2023-08-11T06:47:46.463Z,55.88
2023-08-11T06:50:14.425Z,53.07
2023-08-11T06:52:41.144Z,49.53
2023-08-11T06:55:08.087Z,45.30
2023-08-11T06:57:34.833Z,41.93
2023-08-11T07:00:01.622Z,37.39
2023-08-11T07:02:28.393Z,35.65
2023-08-11T07:04:55.045Z,33.79
2023-08-11T07:07:21.734Z,32.29
2023-08-11T07:09:48.384Z,31.64
2023-08-11T07:12:14.979Z,30.20
2023-08-11T07:14:43.742Z,29.88
2023-08-11T07:17:12.039Z,28.42
2023-08-11T07:19:39.082Z,27.47
2023-08-11T07:22:05.764Z,26.43
2023-08-11T07:24:32.494Z,25.96
2023-08-11T07:26:59.103Z,24.74
2023-08-11T07:29:25.744Z,23.53
2023-08-11T07:31:52.371Z,24.01
2023-08-11T07:34:19.363Z,22.85
2023-08-11T07:36:46.001Z,22.55
2023-08-11T07:39:22.890Z,22.81
2023-08-11T07:41:51.654Z,20.71
2023-08-11T07:44:18.483Z,19.87
2023-08-11T07:46:45.355Z,19.68
2023-08-11T07:49:12.187Z,19.88
2023-08-11T07:51:41.049Z,19.63
2023-08-11T07:54:07.932Z,20.04
2023-08-11T07:56:35.134Z,20.25
2023-08-11T07:59:02.027Z,21.61
2023-08-11T08:01:29.162Z,19.95
2023-08-11T08:03:57.546Z,17.72
2023-08-11T08:06:25.103Z,18.01
2023-08-11T08:08:51.768Z,16.54
2023-08-11T08:11:18.549Z,16.25
2023-08-11T08:13:45.316Z,15.84
2023-08-11T08:16:12.058Z,16.26
2023-08-11T08:18:38.721Z,17.06
2023-08-11T08:21:05.381Z,16.74
2023-08-11T08:23:31.984Z,16.27
2023-08-11T08:25:59.192Z,15.92
2023-08-11T08:28:26.120Z,16.38
2023-08-11T08:30:53.252Z,15.95
2023-08-11T08:33:19.900Z,15.88
2023-08-11T08:35:47.664Z,16.21
2023-08-11T08:38:14.274Z,16.73
2023-08-11T08:40:41.073Z,16.47
2023-08-11T08:43:09.937Z,15.91
2023-08-11T08:45:38.647Z,15.48
2023-08-11T08:48:14.411Z,14.42
2023-08-11T08:50:41.025Z,14.21
2023-08-11T08:53:07.826Z,12.82
2023-08-11T08:55:34.684Z,14.41
2023-08-11T08:58:03.159Z,15.39
2023-08-11T09:00:29.891Z,15.51
2023-08-11T09:02:58.575Z,15.70
2023-08-11T09:05:26.565Z,15.19
2023-08-11T09:07:53.927Z,12.75
2023-08-11T09:10:20.634Z,12.09
2023-08-11T09:12:49.518Z,12.66
2023-08-11T09:15:16.555Z,11.28
2023-08-11T09:17:43.566Z,11.31
2023-08-11T09:20:13.977Z,11.78
2023-08-11T09:22:41.619Z,12.25
2023-08-11T09:25:09.031Z,12.30
2023-08-11T09:27:35.822Z,12.80
2023-08-11T09:30:02.512Z,13.08
2023-08-11T09:32:33.353Z,13.39
2023-08-11T09:35:14.014Z,13.57
2023-08-11T09:37:44.945Z,13.52
2023-08-11T09:40:12.717Z,13.10
2023-08-11T09:42:39.735Z,10.83
2023-08-11T09:45:07.344Z,10.29
2023-08-11T09:47:36.834Z,10.52
2023-08-11T09:50:04.744Z,10.48
2023-08-11T09:52:36.484Z,10.99
2023-08-11T09:55:07.507Z,11.21
2023-08-11T09:57:38.487Z,11.69
2023-08-11T10:00:07.304Z,11.67
2023-08-11T10:02:37.177Z,10.71
2023-08-11T10:05:08.015Z,11.37
2023-08-11T10:07:40.348Z,10.92
2023-08-11T10:10:19.116Z,10.33
2023-08-11T10:12:53.801Z,10.43
2023-08-11T10:15:23.654Z,10.20
2023-08-11T10:17:51.134Z,8.79
2023-08-11T10:20:18.149Z,10.06
2023-08-11T10:22:44.936Z,9.56
2023-08-11T10:25:12.457Z,10.68
2023-08-11T10:27:40.627Z,10.63
2023-08-11T10:30:09.304Z,10.86
2023-08-11T10:32:36.485Z,9.58
2023-08-11T10:35:07.687Z,10.19
2023-08-11T10:37:34.983Z,10.88
2023-08-11T10:40:06.440Z,11.58
2023-08-11T10:42:33.547Z,12.84
2023-08-11T10:45:11.550Z,14.27
2023-08-11T10:47:40.148Z,15.65
2023-08-11T10:50:10.400Z,16.82
2023-08-11T10:52:37.204Z,17.34
2023-08-11T10:55:04.300Z,17.11
2023-08-11T10:57:35.471Z,16.39
2023-08-11T11:00:02.133Z,16.77
2023-08-11T11:02:30.866Z,17.24
2023-08-11T11:04:58.522Z,17.63
2023-08-11T11:07:26.151Z,16.82
2023-08-11T11:09:53.353Z,16.01
2023-08-11T11:12:20.921Z,15.72
2023-08-11T11:14:47.700Z,15.04
2023-08-11T11:17:14.393Z,13.88
2023-08-11T11:19:41.516Z,12.78
2023-08-11T11:22:09.393Z,13.46
2023-08-11T11:24:38.546Z,13.80
2023-08-11T11:27:05.923Z,13.90
2023-08-11T11:29:33.224Z,15.07
2023-08-11T11:32:07.697Z,16.25
2023-08-11T11:34:38.633Z,16.94
2023-08-11T11:37:05.482Z,16.74
2023-08-11T11:39:33.246Z,17.26
2023-08-11T11:42:07.922Z,18.26
2023-08-11T11:44:35.830Z,19.49
2023-08-11T11:47:06.281Z,20.79
2023-08-11T11:49:33.088Z,21.73
2023-08-11T11:52:01.692Z,22.21
2023-08-11T11:54:30.174Z,22.34
2023-08-11T11:57:04.901Z,21.48
2023-08-11T11:59:33.959Z,19.78
2023-08-11T12:02:04.877Z,18.38
2023-08-11T12:04:32.319Z,18.52
2023-08-11T12:06:59.171Z,19.61
2023-08-11T12:09:25.918Z,19.79
2023-08-11T12:11:55.303Z,20.30
2023-08-11T12:14:21.923Z,20.93
2023-08-11T12:16:48.648Z,19.41
2023-08-11T12:19:15.952Z,18.92
2023-08-11T12:21:43.959Z,18.82
2023-08-11T12:24:15.618Z,18.40
2023-08-11T12:26:42.428Z,18.17
2023-08-11T12:29:09.193Z,19.00
2023-08-11T12:31:35.852Z,19.62
2023-08-11T12:34:02.593Z,20.22
2023-08-11T12:36:29.622Z,20.62
2023-08-11T12:38:56.772Z,19.26
2023-08-11T12:41:24.654Z,19.07
2023-08-11T12:43:51.339Z,18.29
2023-08-11T12:46:18.019Z,18.64
2023-08-11T12:48:44.927Z,19.48
2023-08-11T12:51:11.798Z,20.47
2023-08-11T12:53:38.465Z,21.67
2023-08-11T12:56:05.590Z,22.58
2023-08-11T12:58:32.620Z,23.53
2023-08-11T13:00:59.278Z,24.38
2023-08-11T13:03:27.402Z,25.06
2023-08-11T13:05:54.166Z,25.77
2023-08-11T13:08:20.884Z,25.17
2023-08-11T13:10:47.604Z,24.68
2023-08-11T13:13:14.362Z,24.72
2023-08-11T13:15:41.401Z,24.32
2023-08-11T13:18:08.120Z,23.97
2023-08-11T13:20:34.861Z,24.37
2023-08-11T13:23:01.621Z,24.84
2023-08-11T13:25:28.387Z,25.91
2023-08-11T13:27:55.194Z,25.74
2023-08-11T13:30:23.061Z,26.11
2023-08-11T13:32:49.812Z,25.58
2023-08-11T13:35:16.607Z,24.77
2023-08-11T13:37:43.434Z,24.42
2023-08-11T13:40:10.891Z,24.11
2023-08-11T13:42:38.573Z,23.81
2023-08-11T13:45:08.111Z,24.75
2023-08-11T13:47:35.400Z,24.52
2023-08-11T13:50:02.426Z,24.46
2023-08-11T13:52:29.161Z,24.97
2023-08-11T13:55:04.158Z,24.64
2023-08-11T13:57:31.077Z,25.08
2023-08-11T13:59:59.605Z,24.08
2023-08-11T14:02:28.044Z,25.08
2023-08-11T14:04:55.688Z,26.53
2023-08-11T14:07:31.750Z,27.00
2023-08-11T14:10:00.767Z,27.66
2023-08-11T14:12:27.670Z,28.40
2023-08-11T14:14:54.640Z,29.42
2023-08-11T14:17:21.352Z,30.27
2023-08-11T14:19:48.095Z,30.50
2023-08-11T14:22:15.094Z,31.05
2023-08-11T14:24:42.141Z,31.62
2023-08-11T14:27:08.847Z,32.09
2023-08-11T14:29:35.699Z,31.66
2023-08-11T14:32:18.285Z,33.14
2023-08-11T14:34:49.435Z,33.78
2023-08-11T14:37:17.588Z,34.28
2023-08-11T14:39:46.022Z,34.52
2023-08-11T14:42:15.140Z,35.86
2023-08-11T14:44:42.889Z,36.81
2023-08-11T14:47:14.503Z,37.21
2023-08-11T14:49:42.671Z,37.77
2023-08-11T14:52:09.985Z,37.42
2023-08-11T14:54:37.399Z,36.77
2023-08-11T14:57:04.754Z,37.21
2023-08-11T14:59:32.735Z,37.08
2023-08-11T15:01:59.626Z,36.61
2023-08-11T15:04:27.945Z,36.92
2023-08-11T15:06:54.908Z,36.57
2023-08-11T15:09:21.723Z,36.66
2023-08-11T15:11:49.388Z,36.72
2023-08-11T15:14:16.990Z,36.23
2023-08-11T15:16:43.766Z,36.40
2023-08-11T15:19:10.728Z,37.21
2023-08-11T15:21:37.725Z,36.32
2023-08-11T15:24:04.799Z,36.29
2023-08-11T15:26:31.477Z,36.06
2023-08-11T15:29:00.749Z,36.02
2023-08-11T15:31:27.938Z,35.53
2023-08-11T15:33:54.769Z,34.63
2023-08-11T15:36:21.754Z,34.08
2023-08-11T15:38:50.447Z,34.23
2023-08-11T15:41:17.772Z,34.14
2023-08-11T15:43:44.441Z,34.62
2023-08-11T15:46:11.602Z,34.44
2023-08-11T15:48:38.317Z,34.57
2023-08-11T15:51:05.261Z,34.05
2023-08-11T15:53:31.954Z,34.45
2023-08-11T15:55:58.645Z,35.21
2023-08-11T15:58:25.293Z,35.75
2023-08-11T16:00:52.371Z,36.03
2023-08-11T16:03:21.398Z,36.69
2023-08-11T16:05:49.163Z,35.92
2023-08-11T16:08:15.998Z,35.99
2023-08-11T16:10:43.461Z,36.51
2023-08-11T16:13:13.082Z,36.96
2023-08-11T16:15:39.933Z,36.80
2023-08-11T16:18:10.703Z,37.49
2023-08-11T16:20:40.109Z,37.67
2023-08-11T16:23:08.009Z,38.38
2023-08-11T16:25:34.731Z,37.92
2023-08-11T16:28:01.440Z,37.77
2023-08-11T16:30:28.438Z,37.68
2023-08-11T16:32:58.443Z,38.24
2023-08-11T16:35:25.372Z,39.04
2023-08-11T16:37:52.169Z,38.20
2023-08-11T16:40:18.832Z,38.54
2023-08-11T16:42:45.493Z,38.56
2023-08-11T16:45:12.210Z,38.35
2023-08-11T16:47:39.031Z,38.59
2023-08-11T16:50:06.353Z,38.49
2023-08-11T16:52:33.096Z,38.72
2023-08-11T16:54:59.948Z,38.73
2023-08-11T16:57:26.554Z,38.91
2023-08-11T16:59:53.232Z,38.59
2023-08-11T17:02:20.122Z,38.84
2023-08-11T17:04:47.227Z,38.60
2023-08-11T17:07:13.901Z,38.76
2023-08-11T17:09:40.594Z,38.76
2023-08-11T17:12:08.144Z,38.79
2023-08-11T17:14:35.277Z,39.21
2023-08-11T17:17:01.956Z,39.10
2023-08-11T17:19:28.797Z,39.60
2023-08-11T17:21:58.358Z,39.92
2023-08-11T17:24:25.039Z,40.19
2023-08-11T17:26:52.497Z,40.28
2023-08-11T17:29:19.143Z,40.71
2023-08-11T17:31:45.902Z,40.98
2023-08-11T17:34:12.554Z,41.08
2023-08-11T17:36:39.205Z,41.27
2023-08-11T17:39:07.421Z,41.30
2023-08-11T17:41:34.068Z,41.84
2023-08-11T17:44:00.673Z,42.16
2023-08-11T17:46:29.166Z,42.33
2023-08-11T17:48:56.478Z,42.57
2023-08-11T17:51:24.008Z,42.68
2023-08-11T17:54:03.857Z,42.74
2023-08-11T17:56:39.346Z,42.92
2023-08-11T17:59:06.405Z,43.19
2023-08-11T18:01:33.388Z,43.97
2023-08-11T18:04:07.540Z,44.06
2023-08-11T18:06:36.069Z,43.75
2023-08-11T18:09:04.766Z,44.20
2023-08-11T18:11:31.680Z,44.62
2023-08-11T18:13:58.391Z,44.89
2023-08-11T18:16:27.933Z,44.97
2023-08-11T18:18:54.775Z,45.17
2023-08-11T18:21:21.755Z,44.70
2023-08-11T18:23:48.668Z,45.43
2023-08-11T18:26:17.526Z,45.76
2023-08-11T18:28:44.834Z,46.40
2023-08-11T18:31:11.692Z,49.05
2023-08-11T18:33:38.607Z,50.36
2023-08-11T18:36:05.641Z,51.60
2023-08-11T18:38:32.285Z,53.32
2023-08-11T18:40:59.164Z,53.70
2023-08-11T18:43:25.907Z,53.36
2023-08-11T18:45:52.583Z,53.86
2023-08-11T18:48:19.715Z,54.45
2023-08-11T18:50:46.683Z,54.70
2023-08-11T18:53:14.086Z,54.95
2023-08-11T18:55:40.776Z,55.69
2023-08-11T18:58:08.062Z,56.08
2023-08-11T19:00:34.756Z,57.01
2023-08-11T19:03:01.541Z,57.27
2023-08-11T19:05:28.655Z,58.01
2023-08-11T19:07:56.035Z,60.35
2023-08-11T19:10:28.705Z,61.58
2023-08-11T19:12:55.481Z,64.37
2023-08-11T19:15:22.179Z,63.78
2023-08-11T19:17:48.825Z,61.67
2023-08-11T19:20:15.552Z,58.16
2023-08-11T19:22:43.186Z,56.52
2023-08-11T19:25:11.975Z,57.20
2023-08-11T19:27:39.442Z,58.03
2023-08-11T19:30:07.566Z,58.70
2023-08-11T19:32:35.815Z,59.75
2023-08-11T19:35:04.161Z,62.67
2023-08-11T19:37:30.888Z,63.62
2023-08-11T19:39:57.622Z,62.07
2023-08-11T19:42:24.421Z,60.58
2023-08-11T19:44:51.205Z,57.99
2023-08-11T19:47:17.839Z,57.29
2023-08-11T19:49:44.510Z,58.03
2023-08-11T19:52:12.044Z,59.50
2023-08-11T19:54:39.084Z,60.33
2023-08-11T19:57:05.955Z,63.81
2023-08-11T19:59:32.646Z,64.72
2023-08-11T20:01:59.371Z,63.28
2023-08-11T20:04:28.415Z,61.73
2023-08-11T20:06:55.333Z,60.90
2023-08-11T20:09:23.480Z,60.17
2023-08-11T20:11:51.503Z,57.99
2023-08-11T20:14:19.817Z,57.58
2023-08-11T20:16:51.461Z,58.55
2023-08-11T20:19:19.479Z,59.72
2023-08-11T20:21:46.456Z,63.25
2023-08-11T20:24:13.203Z,64.16
2023-08-11T20:26:39.844Z,62.55
2023-08-11T20:29:06.909Z,61.30
2023-08-11T20:31:34.207Z,59.18
2023-08-11T20:34:01.458Z,58.64
2023-08-11T20:36:28.613Z,59.67
2023-08-11T20:38:55.222Z,63.09
2023-08-11T20:41:21.863Z,64.83
2023-08-11T20:43:49.646Z,63.62
2023-08-11T20:46:16.882Z,62.36
2023-08-11T20:48:43.622Z,61.40
2023-08-11T20:51:12.873Z,60.74
2023-08-11T20:53:40.046Z,60.41
2023-08-11T20:56:06.710Z,58.75
2023-08-11T20:58:33.550Z,58.35
2023-08-11T21:01:00.521Z,59.77
2023-08-11T21:03:27.435Z,63.44
2023-08-11T21:05:54.928Z,64.49
2023-08-11T21:08:22.315Z,63.18
2023-08-11T21:10:49.118Z,61.93
2023-08-11T21:13:16.000Z,61.07
2023-08-11T21:15:42.656Z,60.18
2023-08-11T21:18:10.799Z,58.06
2023-08-11T21:20:38.341Z,57.83
2023-08-11T21:23:06.287Z,59.46
2023-08-11T21:25:33.247Z,63.56
2023-08-11T21:28:00.319Z,64.81
2023-08-11T21:30:27.007Z,63.69
2023-08-11T21:32:53.779Z,62.48
2023-08-11T21:35:21.335Z,61.84
2023-08-11T21:37:48.951Z,61.10
2023-08-11T21:40:15.712Z,60.73
2023-08-11T21:42:42.766Z,58.73
2023-08-11T21:45:10.869Z,58.38
2023-08-11T21:47:37.486Z,59.97
2023-08-11T21:50:04.477Z,63.97
2023-08-11T21:52:31.111Z,65.30
2023-08-11T21:54:57.738Z,64.02
2023-08-11T21:57:24.401Z,62.68
2023-08-11T21:59:51.100Z,62.15
2023-08-11T22:02:17.959Z,61.74
2023-08-11T22:04:46.448Z,61.18
2023-08-11T22:07:14.058Z,60.65
2023-08-11T22:09:40.961Z,60.43
2023-08-11T22:12:07.780Z,60.22
2023-08-11T22:14:35.124Z,60.05
2023-08-11T22:17:01.757Z,58.61
2023-08-11T22:19:30.489Z,58.51
2023-08-11T22:21:57.815Z,60.04
2023-08-11T22:24:38.550Z,63.91
2023-08-11T22:27:08.143Z,65.18
2023-08-11T22:29:34.791Z,63.75
2023-08-11T22:32:02.194Z,63.03
2023-08-11T22:34:28.812Z,62.14
2023-08-11T22:36:56.213Z,61.43
2023-08-11T22:39:22.954Z,61.21
2023-08-11T22:41:49.560Z,60.67
2023-08-11T22:44:16.233Z,60.65
2023-08-11T22:46:43.403Z,60.62
2023-08-11T22:49:10.114Z,60.31
2023-08-11T22:51:36.754Z,60.05
2023-08-11T22:54:03.499Z,59.92
2023-08-11T22:56:30.132Z,58.22
2023-08-11T22:58:56.790Z,57.89
2023-08-11T23:01:23.456Z,60.06
2023-08-11T23:03:50.199Z,64.03
2023-08-11T23:06:16.993Z,65.29
2023-08-11T23:08:43.709Z,63.93
2023-08-11T23:11:10.318Z,62.89
2023-08-11T23:13:36.955Z,62.22
2023-08-11T23:16:04.271Z,61.65
2023-08-11T23:18:31.111Z,61.23
2023-08-11T23:20:57.778Z,60.99
2023-08-11T23:23:24.411Z,60.91
2023-08-11T23:25:51.249Z,60.76
2023-08-11T23:28:18.591Z,60.43
2023-08-11T23:30:45.231Z,60.32
2023-08-11T23:33:13.087Z,59.94
2023-08-11T23:35:40.147Z,58.71
2023-08-11T23:38:08.411Z,59.38
2023-08-11T23:40:35.060Z,63.51
2023-08-11T23:43:02.964Z,65.14
2023-08-11T23:45:30.734Z,64.07
2023-08-11T23:47:57.898Z,63.18
2023-08-11T23:50:24.970Z,62.51
2023-08-11T23:52:51.557Z,61.84
2023-08-11T23:55:18.187Z,61.20
2023-08-11T23:57:44.808Z,60.74
